Price, Texas
Current Conditions -  °F | °C
As of 2:15 PM on Sunday 23 Nov 2014 (Local Time) from KRFI Reporting Station
Clear Clear  
Wind Chill: 73°   Ceiling: Unl
Heat Index: 73°   Visibility: 10mi
Dew Point: 55°   Wind: 6mph
Humidity: 53%   Direction: 190°S
Pressure: 29.44"   Gusts: 18mph
Location:  32.13°N, 94.94°W
Report Text: KRFI 232015Z AUTO 19005G16KT 10SM CLR 23/13 A2944 RMK AO2 T02270126
Loading
Personal Weather Stations






























Interactive Weather Map New forecast layout! Learn more

10-Day Weather Forecast

Advertisements
Track Severe Weather on mobile